Terminal Aerodrome Forecast
Issued by NWS North Platte, NE

Home | Current Version | Previous Version | Text Only | Print | Product List | Glossary On
Versions: 1 2 3 4 5 6 7 8 9 10 11 12 13 14 15 16 17 18 19 20
000
FTUS43 KLBF 190520
TAFVTN
TAF
KVTN 190520Z 1906/2006 07006KT P6SM SCT200
      TEMPO 1910/1914 3SM BR
     FM191400 13005KT P6SM SCT200
     FM191700 17013G19KT P6SM FEW250
     FM200200 17008KT P6SM BKN200
     FM200400 21007KT P6SM BKN150=

USA.gov is the U.S. government's official web portal to all federal, state and local government web resources and services.